Watton, Michigan
Current Conditions -  °F | °C
As of 5:35 PM on Wednesday 22 Oct 2014 (Local Time) from KLNL Reporting Station
Clear Clear  
Wind Chill: 53°   Ceiling: Unl
Heat Index: 53°   Visibility: 10mi
Dew Point: 26°   Wind: 7mph
Humidity: 35%   Direction: 160°SSE
Pressure: 30.2"   Gusts: NA
Location:  46.54°N, 88.61°W
Report Text: KLNL 222135Z AUTO 16006KT 10SM CLR 12/M03 A3020 RMK AO2 T01151034
Loading
Personal Weather Stations






























Interactive Weather Map
Tropical Storm Tracking
New forecast layout! Learn more

10-Day Weather Forecast

Advertisements
Track Severe Weather on mobile